createdAt,value
2023-04-25T00:01:45.075Z,5.27
2023-04-25T00:03:48.956Z,5.63
2023-04-25T00:05:52.555Z,4.60
2023-04-25T00:07:55.807Z,4.77
2023-04-25T00:09:58.946Z,5.23
2023-04-25T00:12:03.447Z,4.90
2023-04-25T00:14:07.671Z,5.13
2023-04-25T00:16:11.806Z,6.23
2023-04-25T00:18:14.907Z,6.07
2023-04-25T00:20:17.996Z,7.60
2023-04-25T00:22:21.806Z,5.40
2023-04-25T00:24:24.809Z,4.53
2023-04-25T00:26:28.160Z,5.20
2023-04-25T00:28:32.558Z,4.50
2023-04-25T00:30:35.774Z,5.50
2023-04-25T00:32:38.893Z,4.70
2023-04-25T00:34:42.334Z,4.63
2023-04-25T00:36:45.946Z,4.83
2023-04-25T00:38:49.028Z,5.70
2023-04-25T00:40:52.187Z,6.20
2023-04-25T00:42:55.476Z,5.23
2023-04-25T00:45:00.802Z,4.47
2023-04-25T00:47:04.420Z,4.30
2023-04-25T00:49:07.661Z,4.70
2023-04-25T00:51:12.745Z,6.60
2023-04-25T00:53:15.942Z,4.73
2023-04-25T00:55:19.160Z,4.87
2023-04-25T00:57:22.328Z,5.20
2023-04-25T00:59:25.991Z,4.90
2023-04-25T01:01:30.833Z,4.17
2023-04-25T01:03:36.648Z,4.27
2023-04-25T01:05:39.927Z,4.53
2023-04-25T01:07:43.509Z,5.07
2023-04-25T01:09:46.734Z,4.37
2023-04-25T01:11:49.754Z,6.37
2023-04-25T01:13:53.551Z,4.77
2023-04-25T01:15:56.953Z,4.27
2023-04-25T01:18:03.101Z,4.27
2023-04-25T01:20:08.322Z,6.90
2023-04-25T01:22:12.970Z,5.37
2023-04-25T01:24:16.075Z,4.40
2023-04-25T01:26:19.477Z,4.30
2023-04-25T01:28:23.103Z,4.70
2023-04-25T01:30:26.918Z,4.40
2023-04-25T01:32:30.326Z,7.50
2023-04-25T01:34:33.527Z,8.80
2023-04-25T01:36:36.573Z,4.40
2023-04-25T01:38:41.255Z,4.37
2023-04-25T01:40:47.169Z,6.23
2023-04-25T01:42:50.749Z,5.40
2023-04-25T01:44:53.884Z,5.60
2023-04-25T01:46:57.269Z,4.70
2023-04-25T01:49:00.293Z,5.87
2023-04-25T01:51:03.443Z,6.20
2023-04-25T01:53:06.634Z,4.97
2023-04-25T01:55:11.588Z,5.20
2023-04-25T01:57:19.499Z,7.43
2023-04-25T01:59:23.386Z,5.00
2023-04-25T02:01:44.775Z,5.17
2023-04-25T02:03:57.256Z,5.37
2023-04-25T02:06:06.457Z,5.60
2023-04-25T02:08:13.034Z,5.13
2023-04-25T02:10:17.526Z,7.13
2023-04-25T02:12:32.981Z,5.67
2023-04-25T02:14:55.986Z,6.50
2023-04-25T02:17:18.775Z,6.47
2023-04-25T02:19:22.192Z,9.70
2023-04-25T02:21:25.237Z,5.80
2023-04-25T02:23:28.270Z,5.10
2023-04-25T02:25:32.849Z,5.10
2023-04-25T02:27:36.084Z,5.23
2023-04-25T02:29:39.241Z,5.37
2023-04-25T02:31:42.352Z,5.47
2023-04-25T02:33:45.548Z,5.00
2023-04-25T02:35:48.680Z,6.20
2023-04-25T02:37:51.760Z,5.30
2023-04-25T02:39:54.863Z,5.20
2023-04-25T02:41:59.245Z,7.13
2023-04-25T02:44:02.356Z,5.23
2023-04-25T02:46:05.726Z,5.23
2023-04-25T02:48:08.918Z,5.57
2023-04-25T02:50:12.298Z,6.13
2023-04-25T02:52:17.079Z,4.57
2023-04-25T02:54:22.735Z,5.90
2023-04-25T02:56:27.186Z,5.87
2023-04-25T02:58:31.890Z,6.00
2023-04-25T03:00:35.033Z,5.30
2023-04-25T03:02:38.266Z,5.50
2023-04-25T03:04:41.802Z,5.37
2023-04-25T03:06:45.287Z,5.93
2023-04-25T03:08:48.297Z,5.33
2023-04-25T03:10:53.112Z,5.63
2023-04-25T03:12:56.165Z,6.23
2023-04-25T03:15:00.569Z,6.40
2023-04-25T03:17:03.720Z,7.37
2023-04-25T03:19:07.014Z,6.60
2023-04-25T03:21:10.223Z,6.20
2023-04-25T03:23:13.346Z,5.70
2023-04-25T03:25:19.012Z,5.60
2023-04-25T03:27:22.673Z,6.23
2023-04-25T03:29:27.550Z,4.87
2023-04-25T03:31:33.818Z,7.97
2023-04-25T03:33:36.909Z,5.93
2023-04-25T03:35:40.004Z,7.10
2023-04-25T03:37:46.682Z,8.03
2023-04-25T03:39:54.929Z,7.30
2023-04-25T03:42:00.427Z,6.20
2023-04-25T03:44:05.698Z,5.97
2023-04-25T03:46:09.701Z,6.97
2023-04-25T03:48:14.372Z,6.10
2023-04-25T03:50:17.391Z,9.40
2023-04-25T03:52:20.536Z,7.20
2023-04-25T03:54:24.339Z,6.93
2023-04-25T03:56:34.323Z,6.10
2023-04-25T03:58:45.910Z,8.20
2023-04-25T04:00:50.366Z,6.00
2023-04-25T04:02:53.912Z,7.00
2023-04-25T04:04:58.723Z,6.73
2023-04-25T04:07:01.926Z,6.23
2023-04-25T04:09:11.993Z,7.50
2023-04-25T04:11:16.766Z,7.50
2023-04-25T04:13:19.883Z,6.63
2023-04-25T04:15:23.197Z,8.17
2023-04-25T04:17:26.833Z,6.10
2023-04-25T04:19:30.011Z,8.90
2023-04-25T04:21:46.395Z,6.83
2023-04-25T04:23:49.800Z,6.40
2023-04-25T04:25:53.804Z,7.50
2023-04-25T04:28:15.478Z,6.60
2023-04-25T04:30:33.417Z,7.10
2023-04-25T04:32:42.891Z,8.80
2023-04-25T04:34:48.308Z,7.20
2023-04-25T04:36:53.978Z,7.30
2023-04-25T04:38:57.437Z,6.20
2023-04-25T04:41:11.527Z,6.77
2023-04-25T04:43:25.900Z,6.53
2023-04-25T04:45:32.140Z,7.20
2023-04-25T04:47:47.123Z,8.70
2023-04-25T04:49:55.097Z,7.83
2023-04-25T04:52:17.809Z,6.83
2023-04-25T04:54:40.387Z,9.00
2023-04-25T04:56:53.483Z,7.50
2023-04-25T04:59:19.767Z,8.17
2023-04-25T05:01:43.199Z,8.27
2023-04-25T05:04:18.884Z,7.90
2023-04-25T05:06:40.664Z,7.47
2023-04-25T05:08:54.401Z,10.40
2023-04-25T05:11:14.858Z,8.13
2023-04-25T05:13:31.294Z,7.57
2023-04-25T05:15:51.486Z,11.13
2023-04-25T05:18:02.567Z,7.83
2023-04-25T05:20:28.691Z,7.50
2023-04-25T05:22:37.598Z,8.57
2023-04-25T05:24:56.366Z,8.80
2023-04-25T05:27:20.308Z,7.03
2023-04-25T05:29:45.303Z,7.90
2023-04-25T05:31:58.690Z,7.80
2023-04-25T05:34:01.845Z,8.90
2023-04-25T05:36:16.605Z,10.20
2023-04-25T05:38:21.017Z,7.90
2023-04-25T05:40:44.357Z,7.20
2023-04-25T05:42:53.291Z,8.00
2023-04-25T05:45:19.222Z,7.90
2023-04-25T05:47:42.234Z,10.60
2023-04-25T05:49:54.306Z,9.20
2023-04-25T05:52:10.347Z,8.63
2023-04-25T05:54:21.816Z,8.37
2023-04-25T05:56:26.647Z,8.10
2023-04-25T05:58:31.073Z,9.07
2023-04-25T06:00:35.647Z,8.20
2023-04-25T06:02:38.800Z,13.70
2023-04-25T06:04:42.205Z,9.13
2023-04-25T06:06:45.511Z,8.67
2023-04-25T06:08:48.616Z,9.03
2023-04-25T06:10:51.738Z,10.50
2023-04-25T06:12:57.005Z,9.63
2023-04-25T06:15:02.130Z,9.10
2023-04-25T06:17:09.414Z,9.20
2023-04-25T06:19:12.669Z,9.53
2023-04-25T06:21:15.788Z,8.67
2023-04-25T06:23:19.202Z,10.30
2023-04-25T06:25:29.161Z,9.90
2023-04-25T06:27:32.942Z,9.90
2023-04-25T06:29:37.512Z,9.40
2023-04-25T06:31:40.741Z,8.10
2023-04-25T06:33:44.077Z,8.17
2023-04-25T06:35:47.178Z,8.00
2023-04-25T06:37:53.381Z,7.87
2023-04-25T06:39:59.156Z,8.80
2023-04-25T06:42:02.241Z,10.63
2023-04-25T06:44:24.142Z,7.67
2023-04-25T06:46:31.163Z,8.80
2023-04-25T06:48:35.681Z,7.10
2023-04-25T06:50:38.805Z,7.83
2023-04-25T06:52:41.877Z,8.65
2023-04-25T06:54:45.050Z,7.83
2023-04-25T06:57:11.859Z,7.70
2023-04-25T06:59:15.027Z,8.70
2023-04-25T07:01:20.090Z,7.27
2023-04-25T07:03:25.038Z,10.63
2023-04-25T07:05:32.387Z,8.20
2023-04-25T07:07:36.192Z,7.00
2023-04-25T07:09:39.345Z,8.20
2023-04-25T07:11:42.968Z,7.70
2023-04-25T07:13:46.176Z,10.97
2023-04-25T07:15:49.836Z,16.03
2023-04-25T07:17:54.722Z,14.67
2023-04-25T07:19:59.342Z,8.50
2023-04-25T07:22:06.649Z,7.50
2023-04-25T07:24:11.769Z,7.50
2023-04-25T07:26:19.302Z,7.67
2023-04-25T07:28:41.595Z,5.90
2023-04-25T07:30:44.877Z,6.80
2023-04-25T07:32:48.108Z,6.10
2023-04-25T07:34:52.187Z,5.50
2023-04-25T07:36:56.846Z,6.90
2023-04-25T07:39:02.417Z,6.90
2023-04-25T07:41:05.927Z,6.67
2023-04-25T07:43:09.114Z,12.10
2023-04-25T07:45:22.834Z,7.63
2023-04-25T07:47:26.555Z,7.73
2023-04-25T07:49:30.133Z,7.70
2023-04-25T07:51:33.431Z,6.57
2023-04-25T07:53:43.244Z,6.50
2023-04-25T07:55:49.585Z,6.83
2023-04-25T07:57:54.458Z,7.80
2023-04-25T07:59:57.596Z,7.60
2023-04-25T08:02:01.121Z,8.00
2023-04-25T08:04:04.664Z,9.20
2023-04-25T08:06:28.872Z,8.67
2023-04-25T08:08:51.119Z,8.17
2023-04-25T08:10:57.453Z,8.40
2023-04-25T08:13:00.801Z,7.93
2023-04-25T08:15:04.125Z,9.53
2023-04-25T08:17:12.126Z,8.30
2023-04-25T08:19:17.824Z,8.33
2023-04-25T08:21:22.395Z,11.83
2023-04-25T08:23:25.863Z,7.97
2023-04-25T08:25:42.175Z,15.37
2023-04-25T08:27:47.943Z,15.30
2023-04-25T08:29:54.265Z,11.23
2023-04-25T08:31:57.818Z,9.67
2023-04-25T08:34:01.043Z,19.30
2023-04-25T08:36:31.561Z,18.00
2023-04-25T08:38:41.617Z,11.60
2023-04-25T08:40:52.434Z,11.20
2023-04-25T08:42:58.226Z,9.87
2023-04-25T08:45:02.911Z,12.13
2023-04-25T08:47:10.960Z,9.93
2023-04-25T08:49:22.233Z,9.30
2023-04-25T08:51:26.019Z,9.00
2023-04-25T08:53:31.181Z,9.10
2023-04-25T08:55:36.592Z,10.03
2023-04-25T08:57:43.693Z,9.17
2023-04-25T08:59:48.021Z,9.77
2023-04-25T09:01:51.479Z,9.93
2023-04-25T09:03:59.927Z,8.27
2023-04-25T09:06:03.707Z,7.77
2023-04-25T09:08:07.372Z,8.93
2023-04-25T09:10:11.418Z,8.37
2023-04-25T09:12:15.818Z,10.83
2023-04-25T09:14:21.977Z,8.30
2023-04-25T09:17:06.184Z,8.43
2023-04-25T09:19:38.205Z,9.30
2023-04-25T09:21:43.248Z,9.37
2023-04-25T09:23:48.014Z,12.00
2023-04-25T09:25:54.796Z,10.33
2023-04-25T09:27:58.081Z,11.07
2023-04-25T09:30:07.705Z,8.40
2023-04-25T09:32:29.158Z,9.13
2023-04-25T09:34:41.638Z,9.87
2023-04-25T09:36:44.754Z,9.30
2023-04-25T09:39:17.402Z,9.10
2023-04-25T09:41:28.005Z,9.17
2023-04-25T09:43:33.917Z,11.13
2023-04-25T09:45:46.842Z,10.13
2023-04-25T09:47:51.713Z,10.10
2023-04-25T09:50:00.520Z,9.47
2023-04-25T09:52:03.763Z,10.00
2023-04-25T09:54:19.549Z,9.73
2023-04-25T09:56:25.531Z,9.80
2023-04-25T09:58:33.179Z,12.17
2023-04-25T10:00:37.493Z,10.23
2023-04-25T10:02:56.680Z,9.90
2023-04-25T10:05:26.965Z,8.80
2023-04-25T10:07:32.417Z,8.73
2023-04-25T10:09:40.506Z,9.90
2023-04-25T10:11:43.808Z,10.03
2023-04-25T10:13:48.945Z,11.00
2023-04-25T10:15:53.350Z,10.63
2023-04-25T10:17:58.939Z,12.60
2023-04-25T10:20:04.961Z,11.27
2023-04-25T10:22:10.421Z,12.13
2023-04-25T10:24:13.635Z,11.63
2023-04-25T10:26:17.948Z,11.30
2023-04-25T10:28:21.625Z,9.93
2023-04-25T10:30:25.266Z,6.53
2023-04-25T10:32:30.715Z,6.30
2023-04-25T10:34:42.970Z,5.40
2023-04-25T10:36:51.871Z,5.40
2023-04-25T10:38:55.327Z,5.80
2023-04-25T10:41:06.000Z,5.90
2023-04-25T10:43:37.667Z,4.90
2023-04-25T10:45:53.408Z,5.37
2023-04-25T10:47:56.760Z,5.63
2023-04-25T10:50:07.307Z,4.90
2023-04-25T10:52:18.455Z,6.73
2023-04-25T10:54:22.115Z,5.20
2023-04-25T10:56:27.821Z,6.00
2023-04-25T10:58:30.892Z,7.03
2023-04-25T11:00:48.021Z,7.40
2023-04-25T11:03:01.285Z,6.57
2023-04-25T11:05:06.578Z,6.70
2023-04-25T11:07:16.202Z,8.07
2023-04-25T11:09:19.374Z,10.10
2023-04-25T11:11:22.568Z,7.43
2023-04-25T11:13:31.575Z,8.47
2023-04-25T11:15:34.615Z,8.20
2023-04-25T11:17:37.743Z,8.70
2023-04-25T11:19:41.107Z,9.50
2023-04-25T11:21:45.673Z,9.87
2023-04-25T11:23:49.250Z,8.97
2023-04-25T11:25:53.629Z,8.88
2023-04-25T11:27:58.151Z,8.50
2023-04-25T11:30:01.562Z,7.80
2023-04-25T11:32:04.972Z,9.20
2023-04-25T11:34:08.085Z,8.93
2023-04-25T11:36:12.022Z,7.83
2023-04-25T11:38:16.585Z,10.83
2023-04-25T11:40:22.741Z,12.00
2023-04-25T11:42:25.902Z,10.50
2023-04-25T11:44:29.110Z,11.20
2023-04-25T11:46:32.194Z,9.87
2023-04-25T11:48:39.589Z,9.07
2023-04-25T11:50:42.742Z,8.20
2023-04-25T11:52:47.610Z,8.00
2023-04-25T11:54:52.035Z,7.90
2023-04-25T11:56:55.195Z,14.23
2023-04-25T11:59:02.829Z,8.93
2023-04-25T12:01:06.943Z,8.07
2023-04-25T12:03:11.694Z,8.23
2023-04-25T12:05:31.188Z,11.27
2023-04-25T12:07:36.198Z,10.00
2023-04-25T12:09:40.972Z,11.10
2023-04-25T12:11:46.117Z,7.60
2023-04-25T12:13:54.261Z,8.87
2023-04-25T12:15:57.722Z,9.53
2023-04-25T12:18:00.766Z,11.57
2023-04-25T12:20:09.516Z,8.80
2023-04-25T12:22:23.171Z,10.07
2023-04-25T12:24:28.396Z,11.90
2023-04-25T12:29:01.372Z,8.57
2023-04-25T12:31:06.111Z,6.87
2023-04-25T12:33:09.280Z,7.63
2023-04-25T12:35:12.395Z,8.00
2023-04-25T12:37:15.976Z,7.10
2023-04-25T12:39:20.194Z,8.37
2023-04-25T12:41:23.196Z,8.57
2023-04-25T12:43:26.522Z,8.20
2023-04-25T12:45:31.255Z,8.20
2023-04-25T12:47:36.665Z,11.10
2023-04-25T12:49:39.780Z,9.40
2023-04-25T12:51:42.902Z,9.30
2023-04-25T12:53:45.990Z,8.40
2023-04-25T12:55:49.464Z,9.30
2023-04-25T12:57:52.632Z,9.40
2023-04-25T12:59:55.701Z,11.27
2023-04-25T13:02:00.465Z,12.03
2023-04-25T13:04:03.788Z,12.03
2023-04-25T13:06:07.861Z,11.13
2023-04-25T13:08:11.088Z,10.87
2023-04-25T13:10:14.330Z,12.40
2023-04-25T13:12:17.528Z,11.40
2023-04-25T13:14:20.663Z,11.00
2023-04-25T13:16:24.288Z,14.00
2023-04-25T13:18:28.667Z,12.97
2023-04-25T13:20:31.919Z,11.00
2023-04-25T13:22:35.309Z,13.83
2023-04-25T13:24:38.401Z,13.00
2023-04-25T13:26:41.558Z,11.77
2023-04-25T13:28:45.098Z,14.53
2023-04-25T13:30:49.162Z,11.70
2023-04-25T13:32:52.211Z,12.60
2023-04-25T13:34:57.061Z,17.60
2023-04-25T13:37:00.399Z,12.00
2023-04-25T13:39:05.004Z,12.13
2023-04-25T13:41:08.283Z,13.27
2023-04-25T13:43:11.486Z,13.27
2023-04-25T13:45:14.617Z,13.23
2023-04-25T13:47:17.934Z,13.00
2023-04-25T13:49:21.081Z,15.70
2023-04-25T13:51:26.942Z,16.05
2023-04-25T13:53:30.047Z,16.23
2023-04-25T13:55:33.251Z,12.80
2023-04-25T13:57:37.821Z,12.33
2023-04-25T13:59:42.749Z,12.23
2023-04-25T14:01:46.031Z,14.87
2023-04-25T14:03:49.396Z,19.23
2023-04-25T14:05:52.778Z,13.47
2023-04-25T14:07:57.369Z,18.00
2023-04-25T14:10:00.517Z,18.57
2023-04-25T14:12:04.107Z,15.70
2023-04-25T14:14:07.215Z,19.73
2023-04-25T14:16:10.472Z,17.23
2023-04-25T14:18:13.707Z,17.27
2023-04-25T14:20:16.896Z,16.33
2023-04-25T14:22:20.515Z,15.80
2023-04-25T14:24:25.098Z,16.00
2023-04-25T14:26:28.213Z,16.90
2023-04-25T14:28:31.305Z,16.90
2023-04-25T14:30:34.450Z,16.80
2023-04-25T14:32:37.663Z,17.77
2023-04-25T14:34:41.304Z,16.90
2023-04-25T14:36:44.518Z,19.60
2023-04-25T14:38:47.775Z,14.87
2023-04-25T14:40:52.284Z,16.90
2023-04-25T14:42:55.615Z,12.63
2023-04-25T14:44:58.794Z,17.17
2023-04-25T14:47:02.127Z,13.27
2023-04-25T14:49:05.645Z,16.40
2023-04-25T14:51:09.027Z,16.77
2023-04-25T14:53:12.303Z,13.90
2023-04-25T14:55:15.760Z,16.33
2023-04-25T14:57:20.238Z,16.40
2023-04-25T14:59:23.394Z,14.90
2023-04-25T15:01:27.094Z,15.20
2023-04-25T15:03:30.517Z,14.10
2023-04-25T15:05:33.912Z,11.50
2023-04-25T15:07:37.037Z,12.87
2023-04-25T15:09:40.269Z,14.57
2023-04-25T15:11:43.902Z,12.87
2023-04-25T15:13:48.671Z,17.33
2023-04-25T15:15:55.139Z,13.63
2023-04-25T15:17:59.500Z,16.73
2023-04-25T15:20:02.905Z,21.20
2023-04-25T15:22:07.814Z,20.93
2023-04-25T15:24:11.065Z,22.87
2023-04-25T15:26:14.107Z,17.07
2023-04-25T15:28:17.368Z,12.50
2023-04-25T15:30:22.074Z,11.30
2023-04-25T15:32:25.334Z,14.15
2023-04-25T15:34:28.627Z,13.83
2023-04-25T15:36:32.406Z,12.77
2023-04-25T15:38:35.389Z,15.43
2023-04-25T15:40:38.430Z,16.53
2023-04-25T15:42:43.755Z,12.50
2023-04-25T15:44:46.884Z,11.60
2023-04-25T15:46:52.572Z,11.83
2023-04-25T15:48:57.503Z,15.40
2023-04-25T15:51:00.930Z,12.13
2023-04-25T15:53:05.077Z,15.23
2023-04-25T15:55:11.713Z,13.80
2023-04-25T15:57:15.773Z,15.50
2023-04-25T15:59:18.920Z,13.00
2023-04-25T16:01:26.148Z,10.53
2023-04-25T16:03:32.715Z,11.17
2023-04-25T16:05:37.447Z,11.43
2023-04-25T16:07:40.911Z,11.20
2023-04-25T16:09:44.920Z,12.00
2023-04-25T16:11:48.009Z,11.53
2023-04-25T16:13:51.374Z,11.40
2023-04-25T16:15:54.624Z,14.80
2023-04-25T16:17:57.836Z,13.90
2023-04-25T16:20:07.083Z,10.90
2023-04-25T16:22:13.437Z,12.57
2023-04-25T16:24:16.546Z,13.27
2023-04-25T16:26:19.893Z,14.53
2023-04-25T16:28:23.159Z,17.40
2023-04-25T16:30:26.477Z,12.43
2023-04-25T16:32:29.609Z,13.00
2023-04-25T16:34:32.853Z,12.03
2023-04-25T16:36:37.260Z,11.00
2023-04-25T16:38:40.772Z,10.67
2023-04-25T16:40:43.981Z,8.90
2023-04-25T16:42:47.361Z,9.50
2023-04-25T16:44:50.475Z,9.00
2023-04-25T16:46:53.677Z,11.93
2023-04-25T16:48:56.807Z,9.67
2023-04-25T16:51:00.564Z,8.77
2023-04-25T16:53:05.425Z,10.37
2023-04-25T16:55:09.975Z,9.07
2023-04-25T16:57:13.801Z,12.50
2023-04-25T16:59:17.173Z,10.43
2023-04-25T17:01:21.385Z,13.40
2023-04-25T17:03:24.709Z,10.20
2023-04-25T17:05:28.244Z,12.10
2023-04-25T17:07:31.396Z,10.70
2023-04-25T17:09:36.267Z,11.20
2023-04-25T17:11:39.456Z,11.37
2023-04-25T17:13:43.507Z,9.70
2023-04-25T17:15:46.634Z,8.90
2023-04-25T17:17:50.033Z,11.10
2023-04-25T17:19:53.194Z,9.63
2023-04-25T17:21:56.480Z,10.53
2023-04-25T17:23:59.924Z,12.73
2023-04-25T17:26:04.602Z,13.13
2023-04-25T17:28:07.915Z,10.70
2023-04-25T17:30:12.553Z,12.00
2023-04-25T17:32:17.405Z,12.80
2023-04-25T17:34:20.884Z,14.60
2023-04-25T17:36:23.850Z,13.73
2023-04-25T17:38:27.695Z,11.10
2023-04-25T17:40:31.375Z,10.07
2023-04-25T17:42:36.353Z,12.40
2023-04-25T17:44:39.579Z,26.03
2023-04-25T17:46:42.740Z,14.27
2023-04-25T17:48:46.059Z,9.43
2023-04-25T17:50:49.166Z,11.07
2023-04-25T17:52:52.335Z,12.03
2023-04-25T17:54:55.517Z,10.30
2023-04-25T17:56:58.720Z,10.63
2023-04-25T17:59:03.431Z,9.20
2023-04-25T18:01:06.680Z,11.20
2023-04-25T18:03:10.053Z,12.13
2023-04-25T18:05:13.207Z,11.50
2023-04-25T18:07:16.645Z,10.00
2023-04-25T18:09:23.415Z,13.03
2023-04-25T18:11:26.825Z,10.17
2023-04-25T18:13:30.102Z,10.90
2023-04-25T18:15:34.657Z,10.43
2023-04-25T18:17:40.384Z,11.73
2023-04-25T18:19:43.993Z,15.13
2023-04-25T18:21:47.347Z,12.90
2023-04-25T18:23:50.514Z,14.80
2023-04-25T18:25:54.220Z,10.03
2023-04-25T18:27:57.468Z,11.67
2023-04-25T18:30:00.870Z,10.40
2023-04-25T18:32:05.732Z,10.50
2023-04-25T18:34:09.320Z,9.67
2023-04-25T18:36:12.379Z,9.70
2023-04-25T18:38:21.481Z,11.50
2023-04-25T18:40:31.736Z,12.97
2023-04-25T18:42:34.899Z,12.53
2023-04-25T18:44:40.090Z,13.27
2023-04-25T18:46:45.721Z,10.83
2023-04-25T18:48:51.182Z,10.67
2023-04-25T18:50:54.613Z,11.33
2023-04-25T18:52:57.693Z,11.03
2023-04-25T18:55:00.709Z,12.83
2023-04-25T18:57:04.001Z,15.87
2023-04-25T18:59:07.171Z,12.77
2023-04-25T19:01:10.526Z,13.60
2023-04-25T19:03:13.971Z,13.73
2023-04-25T19:05:18.738Z,14.73
2023-04-25T19:07:22.373Z,12.50
2023-04-25T19:09:25.906Z,15.70
2023-04-25T19:11:29.841Z,12.37
2023-04-25T19:13:32.968Z,14.40
2023-04-25T19:15:36.043Z,19.50
2023-04-25T19:17:39.228Z,22.10
2023-04-25T19:19:42.443Z,21.10
2023-04-25T19:21:47.115Z,19.87
2023-04-25T19:23:52.783Z,70.93
2023-04-25T19:25:56.381Z,73.30
2023-04-25T19:28:00.670Z,22.80
2023-04-25T19:30:08.773Z,20.23
2023-04-25T19:32:11.935Z,22.50
2023-04-25T19:34:15.516Z,14.50
2023-04-25T19:36:18.645Z,15.50
2023-04-25T19:38:24.391Z,13.50
2023-04-25T19:40:27.710Z,12.17
2023-04-25T19:42:30.789Z,13.87
2023-04-25T19:44:33.990Z,15.70
2023-04-25T19:46:38.416Z,16.20
2023-04-25T19:48:41.701Z,13.80
2023-04-25T19:50:44.800Z,15.43
2023-04-25T19:52:47.934Z,17.67
2023-04-25T19:54:52.379Z,17.00
2023-04-25T19:56:55.474Z,21.00
2023-04-25T19:58:58.802Z,18.23
2023-04-25T20:01:02.619Z,17.83
2023-04-25T20:03:05.900Z,23.13
2023-04-25T20:05:10.115Z,25.13
2023-04-25T20:07:14.277Z,25.53
2023-04-25T20:09:17.473Z,15.73
2023-04-25T20:11:22.481Z,14.63
2023-04-25T20:13:25.559Z,16.10
2023-04-25T20:15:28.972Z,16.37
2023-04-25T20:17:32.292Z,19.57
2023-04-25T20:19:36.352Z,19.30
2023-04-25T20:21:39.464Z,23.10
2023-04-25T20:23:43.903Z,22.73
2023-04-25T20:25:47.642Z,21.87
2023-04-25T20:27:52.104Z,17.33
2023-04-25T20:29:55.226Z,20.93
2023-04-25T20:31:58.421Z,19.33
2023-04-25T20:34:01.919Z,20.57
2023-04-25T20:36:05.407Z,20.77
2023-04-25T20:38:08.675Z,15.83
2023-04-25T20:40:12.709Z,16.70
2023-04-25T20:42:15.810Z,17.80
2023-04-25T20:44:22.768Z,16.13
2023-04-25T20:46:26.482Z,18.10
2023-04-25T20:48:29.843Z,13.63
2023-04-25T20:50:33.990Z,16.90
2023-04-25T20:52:37.402Z,14.40
2023-04-25T20:54:40.599Z,15.07
2023-04-25T20:56:43.705Z,17.67
2023-04-25T20:58:47.391Z,18.07
2023-04-25T21:00:51.984Z,20.67
2023-04-25T21:02:55.567Z,20.63
2023-04-25T21:05:01.804Z,18.83
2023-04-25T21:07:05.240Z,17.33
2023-04-25T21:09:09.636Z,23.53
2023-04-25T21:11:12.798Z,22.30
2023-04-25T21:13:15.967Z,21.10
2023-04-25T21:15:20.511Z,17.47
2023-04-25T21:17:25.076Z,22.00
2023-04-25T21:19:28.117Z,21.40
2023-04-25T21:21:31.500Z,16.73
2023-04-25T21:23:34.798Z,19.43
2023-04-25T21:25:38.051Z,19.23
2023-04-25T21:27:41.155Z,14.60
2023-04-25T21:29:44.853Z,18.97
2023-04-25T21:31:48.206Z,18.00
2023-04-25T21:33:53.169Z,20.70
2023-04-25T21:35:56.329Z,15.70
2023-04-25T21:37:59.466Z,16.07
2023-04-25T21:40:03.043Z,15.63
2023-04-25T21:42:09.019Z,17.13
2023-04-25T21:44:14.543Z,17.70
2023-04-25T21:46:23.308Z,17.20
2023-04-25T21:48:26.793Z,16.70
2023-04-25T21:50:31.624Z,15.70
2023-04-25T21:52:34.914Z,19.27
2023-04-25T21:54:37.991Z,19.37
2023-04-25T21:56:41.785Z,15.43
2023-04-25T21:58:44.855Z,21.03
2023-04-25T22:00:48.009Z,13.33
2023-04-25T22:02:53.642Z,15.40
2023-04-25T22:04:57.006Z,17.13
2023-04-25T22:07:01.468Z,16.53
2023-04-25T22:09:04.869Z,16.97
2023-04-25T22:11:08.504Z,16.30
2023-04-25T22:13:11.755Z,21.00
2023-04-25T22:15:18.848Z,16.60
2023-04-25T22:17:25.828Z,16.57
2023-04-25T22:19:30.546Z,14.00
2023-04-25T22:21:33.714Z,17.80
2023-04-25T22:23:38.462Z,19.93
2023-04-25T22:25:42.393Z,15.73
2023-04-25T22:27:45.505Z,16.87
2023-04-25T22:29:48.618Z,15.43
2023-04-25T22:31:52.602Z,15.70
2023-04-25T22:33:56.127Z,19.53
2023-04-25T22:35:59.721Z,16.90
2023-04-25T22:38:03.648Z,19.33
2023-04-25T22:40:10.176Z,16.73
2023-04-25T22:42:13.250Z,20.00
2023-04-25T22:44:16.738Z,17.17
2023-04-25T22:46:20.477Z,19.33
2023-04-25T22:48:23.746Z,21.10
2023-04-25T22:50:27.167Z,22.53
2023-04-25T22:52:30.332Z,18.13
2023-04-25T22:54:33.502Z,20.57
2023-04-25T22:56:38.024Z,25.83
2023-04-25T22:58:41.502Z,25.40
2023-04-25T23:00:45.031Z,19.63
2023-04-25T23:02:48.751Z,15.77
2023-04-25T23:04:53.262Z,15.50
2023-04-25T23:06:56.389Z,19.37
2023-04-25T23:09:00.648Z,16.00
2023-04-25T23:11:07.916Z,20.17
2023-04-25T23:13:12.468Z,15.73
2023-04-25T23:15:15.727Z,15.40
2023-04-25T23:17:18.964Z,17.70
2023-04-25T23:19:22.075Z,18.80
2023-04-25T23:21:25.530Z,15.73
2023-04-25T23:23:28.623Z,15.10
2023-04-25T23:25:31.783Z,19.03
2023-04-25T23:27:34.780Z,18.20
2023-04-25T23:29:40.597Z,18.23
2023-04-25T23:31:43.647Z,19.23
2023-04-25T23:33:46.654Z,16.87
2023-04-25T23:35:49.756Z,19.93
2023-04-25T23:37:53.007Z,18.70
2023-04-25T23:39:56.066Z,19.70
2023-04-25T23:41:59.178Z,22.10
2023-04-25T23:44:03.458Z,18.37
2023-04-25T23:46:09.529Z,21.50
2023-04-25T23:48:13.088Z,18.90
2023-04-25T23:50:16.323Z,19.63
2023-04-25T23:52:19.419Z,17.47
2023-04-25T23:54:22.668Z,23.33
2023-04-25T23:56:26.401Z,17.77
2023-04-25T23:58:29.453Z,22.23
